Time,TemperatureF,DewpointF,PressureIn,WindDirection,WindDirectionDegrees,WindSpeedMPH,WindSpeedGustMPH,Humidity,HourlyPrecipIn,Conditions,Clouds,dailyrainin,SolarRadiationWatts/m^2,SoftwareType,DateUTC
2013-09-01 00:07:00,54.9,53.0,29.90,North,5,0.0,0.0,93,0.00,,,0.00,0,weatherlink.com 1.10,2013-09-01 07:07:00,
2013-09-01 00:22:00,54.5,53.0,29.90,North,5,0.0,0.0,93,0.00,,,0.00,0,weatherlink.com 1.10,2013-09-01 07:22:00,
2013-09-01 00:37:00,54.4,53.0,29.90,North,5,0.0,0.0,94,0.00,,,0.00,0,weatherlink.com 1.10,2013-09-01 07:37:00,
2013-09-01 00:52:00,54.8,53.0,29.91,North,5,0.0,0.0,94,0.00,,,0.00,0,weatherlink.com 1.10,2013-09-01 07:52:00,
2013-09-01 01:07:00,54.8,53.0,29.90,North,5,0.0,0.0,95,0.00,,,0.00,0,weatherlink.com 1.10,2013-09-01 08:07:00,
2013-09-01 01:22:00,54.7,53.0,29.90,North,5,0.0,0.0,95,0.00,,,0.00,0,weatherlink.com 1.10,2013-09-01 08:22:00,
2013-09-01 01:37:00,54.8,53.0,29.90,North,5,0.0,0.0,95,0.00,,,0.00,0,weatherlink.com 1.10,2013-09-01 08:37:00,
2013-09-01 01:52:00,54.8,53.0,29.90,North,5,0.0,0.0,95,0.00,,,0.00,0,weatherlink.com 1.10,2013-09-01 08:52:00,
2013-09-01 02:07:00,54.8,53.0,29.89,North,5,0.0,0.0,95,0.00,,,0.00,0,weatherlink.com 1.10,2013-09-01 09:07:00,
2013-09-01 02:22:00,54.8,53.0,29.89,North,5,0.0,0.0,95,0.00,,,0.00,0,weatherlink.com 1.10,2013-09-01 09:22:00,
2013-09-01 02:37:00,54.8,53.0,29.89,North,5,0.0,0.0,95,0.00,,,0.00,0,weatherlink.com 1.10,2013-09-01 09:37:00,
2013-09-01 02:52:00,54.9,54.0,29.89,North,5,0.0,0.0,95,0.00,,,0.00,0,weatherlink.com 1.10,2013-09-01 09:52:00,
2013-09-01 03:07:00,54.8,53.0,29.89,North,5,0.0,0.0,95,0.00,,,0.00,0,weatherlink.com 1.10,2013-09-01 10:07:00,
2013-09-01 03:22:00,54.7,54.0,29.89,North,9,0.0,0.0,96,0.00,,,0.00,0,weatherlink.com 1.10,2013-09-01 10:22:00,
2013-09-01 03:37:00,54.8,54.0,29.88,North,5,0.0,0.0,96,0.00,,,0.00,0,weatherlink.com 1.10,2013-09-01 10:37:00,
2013-09-01 03:52:00,54.7,54.0,29.89,North,5,0.0,0.0,96,0.00,,,0.00,0,weatherlink.com 1.10,2013-09-01 10:52:00,
2013-09-01 04:07:00,54.5,53.0,29.88,North,5,0.0,0.0,96,0.00,,,0.00,0,weatherlink.com 1.10,2013-09-01 11:07:00,
2013-09-01 04:22:00,54.5,53.0,29.88,North,9,0.0,0.0,96,0.00,,,0.00,0,weatherlink.com 1.10,2013-09-01 11:22:00,
2013-09-01 04:37:00,54.3,53.0,29.89,North,5,0.0,0.0,96,0.00,,,0.00,0,weatherlink.com 1.10,2013-09-01 11:37:00,
2013-09-01 04:52:00,54.2,53.0,29.89,North,9,0.0,0.0,97,0.00,,,0.00,0,weatherlink.com 1.10,2013-09-01 11:52:00,
2013-09-01 05:07:00,54.3,54.0,29.89,North,9,0.0,0.0,97,0.00,,,0.00,0,weatherlink.com 1.10,2013-09-01 12:07:00,
2013-09-01 05:22:00,54.3,54.0,29.89,North,9,0.0,0.0,97,0.00,,,0.00,0,weatherlink.com 1.10,2013-09-01 12:22:00,
2013-09-01 05:37:00,54.2,53.0,29.89,North,9,0.0,0.0,96,0.00,,,0.00,0,weatherlink.com 1.10,2013-09-01 12:37:00,
2013-09-01 05:52:00,54.1,53.0,29.89,North,9,0.0,0.0,96,0.00,,,0.00,0,weatherlink.com 1.10,2013-09-01 12:52:00,
2013-09-01 06:07:00,54.4,53.0,29.89,North,9,0.0,0.0,96,0.00,,,0.00,0,weatherlink.com 1.10,2013-09-01 13:07:00,
2013-09-01 06:22:00,54.3,53.0,29.89,North,9,0.0,0.0,96,0.00,,,0.00,0,weatherlink.com 1.10,2013-09-01 13:22:00,
2013-09-01 06:37:00,54.2,53.0,29.89,North,9,0.0,0.0,96,0.00,,,0.00,0,weatherlink.com 1.10,2013-09-01 13:37:00,
2013-09-01 06:52:00,-999.0,-99.9,29.90,North,-999,-999.0,-999.0,-999,0.00,,,0.00,,weatherlink.com 1.10,2013-09-01 13:52:00,
2013-09-01 07:07:00,54.2,53.0,29.90,North,9,0.0,0.0,96,0.00,,,0.00,11,weatherlink.com 1.10,2013-09-01 14:07:00,
2013-09-01 07:22:00,54.7,54.0,29.90,North,5,0.0,0.0,97,0.00,,,0.00,28,weatherlink.com 1.10,2013-09-01 14:22:00,
2013-09-01 07:37:00,55.1,54.0,29.91,North,9,0.0,0.0,97,0.00,,,0.00,35,weatherlink.com 1.10,2013-09-01 14:37:00,
2013-09-01 07:53:00,55.6,55.0,29.91,North,9,0.0,0.0,96,0.00,,,0.00,49,weatherlink.com 1.10,2013-09-01 14:53:00,
2013-09-01 08:08:00,56.1,55.0,29.92,North,5,0.0,0.0,95,0.00,,,0.00,53,weatherlink.com 1.10,2013-09-01 15:08:00,
2013-09-01 08:23:00,56.3,55.0,29.91,North,5,0.0,0.0,95,0.00,,,0.00,74,weatherlink.com 1.10,2013-09-01 15:23:00,
2013-09-01 08:38:00,57.1,55.0,29.92,North,5,0.0,0.0,94,0.00,,,0.00,113,weatherlink.com 1.10,2013-09-01 15:38:00,
2013-09-01 08:53:00,57.1,55.0,29.92,North,5,0.0,0.0,94,0.00,,,0.00,120,weatherlink.com 1.10,2013-09-01 15:53:00,
2013-09-01 09:08:00,58.3,56.0,29.92,North,5,0.0,0.0,91,0.00,,,0.00,144,weatherlink.com 1.10,2013-09-01 16:08:00,
2013-09-01 09:23:00,59.4,56.0,29.92,North,5,0.0,0.0,89,0.00,,,0.00,153,weatherlink.com 1.10,2013-09-01 16:23:00,
2013-09-01 09:38:00,60.9,57.0,29.92,North,5,0.0,0.0,86,0.00,,,0.00,559,weatherlink.com 1.10,2013-09-01 16:38:00,
2013-09-01 09:53:00,62.9,57.0,29.91,North,5,0.0,0.0,82,0.00,,,0.00,606,weatherlink.com 1.10,2013-09-01 16:53:00,
2013-09-01 10:08:00,64.9,58.0,29.91,North,5,0.0,0.0,78,0.00,,,0.00,758,weatherlink.com 1.10,2013-09-01 17:08:00,
2013-09-01 10:23:00,66.7,58.0,29.91,North,5,0.0,0.0,74,0.00,,,0.00,768,weatherlink.com 1.10,2013-09-01 17:23:00,
2013-09-01 10:38:00,68.4,59.0,29.91,North,5,0.0,0.0,72,0.00,,,0.00,744,weatherlink.com 1.10,2013-09-01 17:38:00,
2013-09-01 10:53:00,70.7,60.0,29.90,North,5,0.0,0.0,70,0.00,,,0.00,867,weatherlink.com 1.10,2013-09-01 17:53:00,
2013-09-01 11:08:00,71.2,60.0,29.90,North,5,0.0,0.0,67,0.00,,,0.00,670,weatherlink.com 1.10,2013-09-01 18:08:00,
2013-09-01 11:23:00,72.1,59.0,29.89,North,5,0.0,0.0,64,0.00,,,0.00,842,weatherlink.com 1.10,2013-09-01 18:23:00,
2013-09-01 11:38:00,75.4,59.0,29.89,North,5,0.0,0.0,58,0.00,,,0.00,861,weatherlink.com 1.10,2013-09-01 18:38:00,
2013-09-01 11:53:00,74.1,59.0,29.89,North,5,0.0,0.0,60,0.00,,,0.00,424,weatherlink.com 1.10,2013-09-01 18:53:00,
2013-09-01 12:08:00,74.3,59.0,29.89,North,5,0.0,0.0,60,0.00,,,0.00,403,weatherlink.com 1.10,2013-09-01 19:08:00,
2013-09-01 12:23:00,73.6,59.0,29.89,North,5,0.0,0.0,61,0.00,,,0.00,383,weatherlink.com 1.10,2013-09-01 19:23:00,
2013-09-01 12:38:00,74.7,60.0,29.88,North,5,0.0,0.0,60,0.00,,,0.00,1063,weatherlink.com 1.10,2013-09-01 19:38:00,
2013-09-01 12:53:00,76.2,61.0,29.88,North,5,0.0,0.0,59,0.00,,,0.00,951,weatherlink.com 1.10,2013-09-01 19:53:00,
2013-09-01 13:08:00,77.1,62.0,29.87,North,5,0.0,0.0,60,0.00,,,0.00,918,weatherlink.com 1.10,2013-09-01 20:08:00,
2013-09-01 13:23:00,75.8,60.0,29.87,North,5,0.0,0.0,58,0.00,,,0.00,872,weatherlink.com 1.10,2013-09-01 20:23:00,
2013-09-01 13:38:00,78.7,61.0,29.86,North,5,0.0,0.0,54,0.00,,,0.00,877,weatherlink.com 1.10,2013-09-01 20:38:00,
2013-09-01 13:54:00,79.1,61.0,29.86,North,5,0.0,0.0,54,0.00,,,0.00,851,weatherlink.com 1.10,2013-09-01 20:54:00,
2013-09-01 14:09:00,82.3,61.0,29.86,North,5,0.0,1.0,48,0.00,,,0.00,844,weatherlink.com 1.10,2013-09-01 21:09:00,
2013-09-01 14:24:00,80.5,60.0,29.85,North,5,0.0,0.0,50,0.00,,,0.00,824,weatherlink.com 1.10,2013-09-01 21:24:00,
2013-09-01 14:39:00,80.4,59.0,29.85,North,5,0.0,0.0,48,0.00,,,0.00,805,weatherlink.com 1.10,2013-09-01 21:39:00,
2013-09-01 14:54:00,79.4,60.0,29.85,North,5,0.0,0.0,51,0.00,,,0.00,780,weatherlink.com 1.10,2013-09-01 21:54:00,
2013-09-01 15:09:00,79.5,60.0,29.84,North,5,0.0,0.0,52,0.00,,,0.00,826,weatherlink.com 1.10,2013-09-01 22:09:00,
2013-09-01 15:24:00,79.0,59.0,29.84,North,5,0.0,0.0,51,0.00,,,0.00,308,weatherlink.com 1.10,2013-09-01 22:24:00,
2013-09-01 15:39:00,79.3,60.0,29.84,North,5,0.0,0.0,52,0.00,,,0.00,816,weatherlink.com 1.10,2013-09-01 22:39:00,
2013-09-01 15:54:00,79.2,61.0,29.84,North,5,0.0,0.0,53,0.00,,,0.00,701,weatherlink.com 1.10,2013-09-01 22:54:00,
2013-09-01 16:09:00,79.0,60.0,29.84,North,5,0.0,0.0,53,0.00,,,0.00,663,weatherlink.com 1.10,2013-09-01 23:09:00,
2013-09-01 16:24:00,77.3,60.0,29.84,North,5,0.0,0.0,56,0.00,,,0.00,575,weatherlink.com 1.10,2013-09-01 23:24:00,
2013-09-01 16:39:00,77.3,60.0,29.84,North,5,0.0,0.0,55,0.00,,,0.00,524,weatherlink.com 1.10,2013-09-01 23:39:00,
2013-09-01 16:54:00,77.2,61.0,29.83,North,5,0.0,0.0,57,0.00,,,0.00,480,weatherlink.com 1.10,2013-09-01 23:54:00,
2013-09-01 17:09:00,76.9,61.0,29.83,North,5,0.0,0.0,58,0.00,,,0.00,438,weatherlink.com 1.10,2013-09-02 00:09:00,
2013-09-01 17:24:00,76.7,62.0,29.83,North,5,0.0,0.0,60,0.00,,,0.00,432,weatherlink.com 1.10,2013-09-02 00:24:00,
2013-09-01 17:39:00,75.9,61.0,29.83,North,5,0.0,0.0,61,0.00,,,0.00,362,weatherlink.com 1.10,2013-09-02 00:39:00,
2013-09-01 17:54:00,74.3,61.0,29.83,North,5,0.0,0.0,63,0.00,,,0.00,185,weatherlink.com 1.10,2013-09-02 00:54:00,
2013-09-01 18:09:00,73.2,61.0,29.83,North,5,0.0,0.0,66,0.00,,,0.00,236,weatherlink.com 1.10,2013-09-02 01:09:00,
2013-09-01 18:24:00,73.0,61.0,29.83,North,5,0.0,0.0,66,0.00,,,0.00,202,weatherlink.com 1.10,2013-09-02 01:24:00,
2013-09-01 18:39:00,72.2,61.0,29.83,North,5,0.0,0.0,67,0.00,,,0.00,135,weatherlink.com 1.10,2013-09-02 01:39:00,
2013-09-01 18:54:00,71.2,61.0,29.84,North,5,0.0,0.0,69,0.00,,,0.00,46,weatherlink.com 1.10,2013-09-02 01:54:00,
2013-09-01 19:09:00,70.4,61.0,29.84,North,5,0.0,0.0,71,0.00,,,0.00,28,weatherlink.com 1.10,2013-09-02 02:09:00,
2013-09-01 19:24:00,69.8,60.0,29.84,North,5,0.0,0.0,71,0.00,,,0.00,18,weatherlink.com 1.10,2013-09-02 02:24:00,
2013-09-01 19:39:00,68.9,60.0,29.84,North,5,0.0,0.0,73,0.00,,,0.00,7,weatherlink.com 1.10,2013-09-02 02:39:00,
2013-09-01 19:54:00,68.2,60.0,29.85,North,5,0.0,0.0,74,0.00,,,0.00,0,weatherlink.com 1.10,2013-09-02 02:54:00,
2013-09-01 20:09:00,68.2,60.0,29.85,North,5,0.0,0.0,74,0.00,,,0.00,0,weatherlink.com 1.10,2013-09-02 03:09:00,
2013-09-01 20:24:00,67.9,60.0,29.85,North,5,0.0,0.0,75,0.00,,,0.00,0,weatherlink.com 1.10,2013-09-02 03:24:00,
2013-09-01 20:39:00,67.9,60.0,29.86,North,5,0.0,0.0,75,0.00,,,0.00,0,weatherlink.com 1.10,2013-09-02 03:39:00,
2013-09-01 20:54:00,66.6,60.0,29.87,North,5,0.0,0.0,78,0.00,,,0.00,0,weatherlink.com 1.10,2013-09-02 03:54:00,
2013-09-01 21:09:00,65.7,59.0,29.87,North,5,0.0,0.0,80,0.00,,,0.00,0,weatherlink.com 1.10,2013-09-02 04:09:00,
2013-09-01 21:24:00,65.2,60.0,29.87,North,5,0.0,0.0,82,0.00,,,0.00,0,weatherlink.com 1.10,2013-09-02 04:24:00,
2013-09-01 21:39:00,64.5,60.0,29.87,North,5,0.0,0.0,84,0.00,,,0.00,0,weatherlink.com 1.10,2013-09-02 04:39:00,
2013-09-01 21:54:00,63.6,59.0,29.87,North,5,0.0,0.0,86,0.00,,,0.00,0,weatherlink.com 1.10,2013-09-02 04:54:00,
2013-09-01 22:09:00,62.9,59.0,29.88,North,5,0.0,0.0,88,0.00,,,0.00,0,weatherlink.com 1.10,2013-09-02 05:09:00,
2013-09-01 22:24:00,62.2,59.0,29.88,North,5,0.0,0.0,90,0.00,,,0.00,0,weatherlink.com 1.10,2013-09-02 05:24:00,
2013-09-01 22:39:00,61.9,59.0,29.88,North,5,0.0,0.0,91,0.00,,,0.00,0,weatherlink.com 1.10,2013-09-02 05:39:00,
2013-09-01 22:54:00,61.9,59.0,29.88,North,5,0.0,0.0,91,0.00,,,0.00,0,weatherlink.com 1.10,2013-09-02 05:54:00,
2013-09-01 23:09:00,62.0,59.0,29.88,North,5,0.0,0.0,90,0.00,,,0.00,0,weatherlink.com 1.10,2013-09-02 06:09:00,
2013-09-01 23:24:00,61.5,59.0,29.88,North,5,0.0,0.0,91,0.00,,,0.00,0,weatherlink.com 1.10,2013-09-02 06:24:00,
2013-09-01 23:39:00,61.1,59.0,29.88,North,9,0.0,0.0,91,0.00,,,0.00,0,weatherlink.com 1.10,2013-09-02 06:39:00,
2013-09-01 23:54:00,61.2,59.0,29.88,North,9,0.0,0.0,92,0.00,,,0.00,0,weatherlink.com 1.10,2013-09-02 06:54:00,